createdAt,value
2019-05-17T00:01:07.086Z,6.13
2019-05-17T00:03:32.483Z,6.20
2019-05-17T00:05:58.655Z,5.83
2019-05-17T00:08:34.401Z,6.20
2019-05-17T00:10:52.829Z,5.80
2019-05-17T00:13:19.004Z,6.10
2019-05-17T00:15:47.258Z,6.57
2019-05-17T00:18:13.175Z,6.43
2019-05-17T00:20:39.347Z,6.30
2019-05-17T00:23:07.077Z,6.13
2019-05-17T00:25:33.578Z,5.70
2019-05-17T00:27:59.761Z,5.67
2019-05-17T00:30:26.511Z,6.23
2019-05-17T00:32:53.032Z,5.93
2019-05-17T00:35:19.211Z,5.70
2019-05-17T00:37:46.481Z,6.33
2019-05-17T00:40:13.023Z,5.77
2019-05-17T00:42:39.206Z,5.77
2019-05-17T00:45:06.774Z,6.33
2019-05-17T00:47:33.126Z,5.93
2019-05-17T00:49:59.307Z,6.43
2019-05-17T00:52:27.207Z,6.10
2019-05-17T00:54:56.238Z,5.27
2019-05-17T00:57:22.172Z,6.67
2019-05-17T00:59:48.378Z,6.13
2019-05-17T01:02:16.358Z,5.90
2019-05-17T01:04:42.936Z,8.03
2019-05-17T01:07:09.132Z,6.03
2019-05-17T01:09:36.666Z,5.87
2019-05-17T01:12:02.983Z,7.30
2019-05-17T01:14:29.193Z,6.50
2019-05-17T01:16:56.508Z,6.73
2019-05-17T01:19:22.846Z,7.07
2019-05-17T01:21:49.048Z,7.00
2019-05-17T01:24:17.273Z,6.80
2019-05-17T01:26:43.502Z,6.03
2019-05-17T01:29:09.699Z,6.53
2019-05-17T01:31:37.317Z,7.27
2019-05-17T01:34:03.747Z,5.93
2019-05-17T01:36:30.358Z,6.97
2019-05-17T01:38:57.586Z,6.67
2019-05-17T01:41:23.990Z,7.97
2019-05-17T01:43:50.278Z,7.67
2019-05-17T01:46:17.160Z,7.90
2019-05-17T01:48:43.529Z,6.73
2019-05-17T01:51:09.730Z,7.00
2019-05-17T01:53:36.431Z,7.03
2019-05-17T01:56:03.362Z,6.83
2019-05-17T01:58:29.569Z,7.83
2019-05-17T02:00:57.330Z,6.93
2019-05-17T02:03:23.815Z,6.70
2019-05-17T02:05:50.013Z,7.50
2019-05-17T02:08:17.061Z,7.13
2019-05-17T02:10:43.663Z,6.70
2019-05-17T02:13:09.864Z,6.47
2019-05-17T02:15:37.828Z,6.20
2019-05-17T02:18:06.775Z,7.17
2019-05-17T02:20:32.438Z,7.10
2019-05-17T02:22:58.710Z,6.93
2019-05-17T02:25:27.098Z,7.80
2019-05-17T02:27:52.884Z,7.57
2019-05-17T02:30:22.987Z,8.57
2019-05-17T02:32:47.046Z,7.50
2019-05-17T02:35:14.779Z,7.93
2019-05-17T02:37:43.431Z,8.33
2019-05-17T02:40:09.715Z,8.63
2019-05-17T02:42:36.219Z,7.90
2019-05-17T02:45:03.627Z,7.30
2019-05-17T02:47:33.324Z,8.00
2019-05-17T02:49:58.074Z,8.00
2019-05-17T02:52:24.250Z,8.30
2019-05-17T02:54:52.617Z,7.97
2019-05-17T02:57:19.315Z,8.03
2019-05-17T02:59:45.469Z,8.93
2019-05-17T03:02:12.570Z,8.27
2019-05-17T03:04:43.028Z,8.43
2019-05-17T03:07:07.638Z,8.80
2019-05-17T03:09:34.017Z,8.73
2019-05-17T03:12:03.270Z,8.87
2019-05-17T03:14:28.296Z,10.03
2019-05-17T03:16:54.475Z,9.43
2019-05-17T03:19:23.532Z,9.53
2019-05-17T03:21:48.772Z,9.70
2019-05-17T03:24:14.958Z,11.00
2019-05-17T03:26:43.027Z,11.37
2019-05-17T03:29:09.197Z,13.10
2019-05-17T03:31:42.672Z,13.27
2019-05-17T03:34:06.592Z,13.70
2019-05-17T03:36:36.141Z,14.10
2019-05-17T03:39:02.877Z,15.77
2019-05-17T03:41:29.117Z,14.07
2019-05-17T03:43:55.513Z,13.67
2019-05-17T03:46:23.222Z,14.70
2019-05-17T03:48:53.219Z,15.37
2019-05-17T03:51:18.880Z,15.30
2019-05-17T03:53:45.554Z,15.80
2019-05-17T03:56:13.381Z,15.97
2019-05-17T03:58:43.356Z,16.90
2019-05-17T04:01:09.590Z,16.67
2019-05-17T04:03:36.100Z,17.43
2019-05-17T04:06:03.825Z,17.67
2019-05-17T04:08:33.232Z,17.70
2019-05-17T04:11:14.969Z,18.23
2019-05-17T04:13:26.542Z,19.00
2019-05-17T04:15:53.258Z,20.70
2019-05-17T04:18:19.521Z,19.70
2019-05-17T04:20:45.692Z,20.23
2019-05-17T04:23:12.747Z,21.57
2019-05-17T04:25:39.471Z,21.50
2019-05-17T04:28:05.646Z,22.07
2019-05-17T04:30:32.751Z,23.77
2019-05-17T04:32:59.427Z,23.17
2019-05-17T04:35:25.721Z,23.57
2019-05-17T04:37:53.187Z,22.57
2019-05-17T04:40:22.876Z,22.97
2019-05-17T04:42:47.888Z,23.77
2019-05-17T04:45:14.063Z,24.57
2019-05-17T04:47:43.721Z,23.37
2019-05-17T04:50:08.560Z,23.70
2019-05-17T04:52:34.938Z,24.53
2019-05-17T04:55:04.172Z,22.27
2019-05-17T04:57:32.350Z,21.40
2019-05-17T04:59:57.745Z,20.20
2019-05-17T05:02:23.937Z,21.30
2019-05-17T05:04:53.168Z,21.70
2019-05-17T05:07:18.084Z,23.83
2019-05-17T05:09:44.273Z,24.57
2019-05-17T05:12:12.460Z,23.47
2019-05-17T05:14:38.459Z,22.60
2019-05-17T05:17:04.627Z,24.07
2019-05-17T05:19:32.952Z,25.53
2019-05-17T05:21:58.767Z,23.63
2019-05-17T05:24:24.960Z,23.90
2019-05-17T05:26:51.803Z,24.67
2019-05-17T05:29:18.011Z,22.73
2019-05-17T05:31:44.307Z,23.53
2019-05-17T05:34:12.337Z,22.77
2019-05-17T05:36:38.586Z,23.20
2019-05-17T05:39:06.269Z,22.20
2019-05-17T05:41:32.451Z,23.03
2019-05-17T05:43:58.625Z,22.50
2019-05-17T05:46:24.822Z,23.17
2019-05-17T05:48:52.228Z,21.53
2019-05-17T05:51:18.583Z,23.87
2019-05-17T05:53:44.783Z,23.40
2019-05-17T05:56:13.299Z,23.30
2019-05-17T05:58:38.934Z,22.33
2019-05-17T06:01:06.479Z,22.97
2019-05-17T06:03:32.659Z,22.10
2019-05-17T06:05:58.842Z,23.33
2019-05-17T06:08:25.096Z,23.13
2019-05-17T06:10:53.184Z,21.67
2019-05-17T06:13:19.193Z,21.17
2019-05-17T06:15:45.397Z,21.67
2019-05-17T06:18:12.161Z,23.40
2019-05-17T06:20:38.747Z,21.90
2019-05-17T06:23:04.955Z,21.07
2019-05-17T06:25:34.095Z,21.83
2019-05-17T06:28:01.425Z,22.50
2019-05-17T06:30:27.410Z,22.17
2019-05-17T06:32:53.574Z,22.33
2019-05-17T06:35:21.786Z,23.77
2019-05-17T06:37:47.767Z,22.90
2019-05-17T06:40:14.039Z,23.60
2019-05-17T06:42:42.454Z,23.77
2019-05-17T06:45:08.532Z,23.83
2019-05-17T06:47:34.902Z,22.97
2019-05-17T06:50:03.128Z,23.63
2019-05-17T06:52:29.200Z,21.53
2019-05-17T06:54:55.379Z,23.47
2019-05-17T06:57:23.348Z,22.77
2019-05-17T06:59:49.929Z,23.97
2019-05-17T07:02:19.651Z,22.50
2019-05-17T07:04:45.747Z,23.70
2019-05-17T07:07:13.884Z,23.97
2019-05-17T07:09:40.180Z,23.57
2019-05-17T07:12:06.436Z,23.80
2019-05-17T07:14:32.742Z,22.60
2019-05-17T07:16:59.587Z,23.17
2019-05-17T07:19:25.889Z,23.23
2019-05-17T07:21:52.209Z,24.27
2019-05-17T07:24:19.760Z,24.53
2019-05-17T07:26:45.934Z,24.63
2019-05-17T07:29:12.347Z,24.50
2019-05-17T07:31:40.464Z,23.47
2019-05-17T07:34:06.510Z,22.90
2019-05-17T07:36:32.712Z,23.53
2019-05-17T07:39:00.752Z,24.67
2019-05-17T07:41:27.059Z,25.23
2019-05-17T07:43:53.558Z,23.73
2019-05-17T07:46:20.622Z,23.37
2019-05-17T07:48:47.015Z,22.60
2019-05-17T07:51:13.214Z,23.63
2019-05-17T07:53:40.056Z,23.40
2019-05-17T07:56:06.469Z,22.50
2019-05-17T07:58:32.670Z,19.77
2019-05-17T08:01:01.484Z,19.40
2019-05-17T08:03:29.728Z,18.40
2019-05-17T08:05:55.597Z,19.00
2019-05-17T08:08:21.773Z,18.07
2019-05-17T08:10:50.745Z,18.77
2019-05-17T08:13:27.332Z,19.27
2019-05-17T08:15:44.098Z,20.10
2019-05-17T08:18:11.044Z,19.73
2019-05-17T08:20:39.827Z,22.40
2019-05-17T08:23:05.654Z,23.37
2019-05-17T08:25:31.837Z,23.80
2019-05-17T08:27:59.516Z,26.07
2019-05-17T08:30:26.071Z,25.03
2019-05-17T08:32:52.506Z,25.00
2019-05-17T08:35:19.822Z,24.57
2019-05-17T08:37:46.292Z,26.20
2019-05-17T08:40:15.236Z,26.80
2019-05-17T08:42:40.893Z,25.60
2019-05-17T08:45:09.525Z,26.77
2019-05-17T08:47:35.505Z,27.43
2019-05-17T08:50:04.679Z,28.27
2019-05-17T08:52:30.813Z,27.00
2019-05-17T08:54:56.957Z,27.23
2019-05-17T08:57:23.135Z,27.20
2019-05-17T08:59:49.731Z,27.97
2019-05-17T09:02:16.732Z,32.13
2019-05-17T09:04:44.692Z,29.10
2019-05-17T09:07:10.840Z,29.37
2019-05-17T09:09:39.330Z,31.30
2019-05-17T09:12:05.272Z,31.20
2019-05-17T09:14:31.454Z,32.07
2019-05-17T09:17:00.222Z,32.50
2019-05-17T09:19:25.874Z,33.23
2019-05-17T09:21:52.055Z,33.13
2019-05-17T09:24:19.481Z,34.30
2019-05-17T09:26:45.934Z,31.53
2019-05-17T09:29:12.110Z,33.87
2019-05-17T09:31:40.252Z,33.53
2019-05-17T09:34:06.279Z,34.30
2019-05-17T09:36:32.555Z,36.00
2019-05-17T09:39:00.119Z,35.40
2019-05-17T09:41:26.543Z,34.77
2019-05-17T09:43:52.772Z,37.73
2019-05-17T09:46:19.704Z,34.63
2019-05-17T09:48:47.064Z,35.77
2019-05-17T09:51:13.420Z,36.80
2019-05-17T09:53:40.092Z,37.53
2019-05-17T09:56:06.636Z,37.07
2019-05-17T09:58:32.816Z,38.10
2019-05-17T10:01:01.447Z,37.00
2019-05-17T10:03:27.366Z,36.77
2019-05-17T10:05:54.051Z,38.93
2019-05-17T10:08:20.436Z,37.23
2019-05-17T10:11:01.009Z,34.13
2019-05-17T10:13:15.226Z,34.57
2019-05-17T10:15:41.718Z,35.23
2019-05-17T10:18:10.761Z,31.30
2019-05-17T10:20:36.862Z,31.00
2019-05-17T10:23:03.053Z,27.10
2019-05-17T10:25:29.523Z,25.17
2019-05-17T10:27:56.117Z,23.60
2019-05-17T10:30:22.612Z,22.10
2019-05-17T10:32:50.497Z,26.33
2019-05-17T10:35:17.001Z,26.03
2019-05-17T10:37:43.176Z,23.03
2019-05-17T10:40:10.361Z,24.43
2019-05-17T10:42:39.350Z,23.63
2019-05-17T10:45:05.402Z,23.33
2019-05-17T10:47:31.625Z,23.53
2019-05-17T10:49:57.807Z,23.67
2019-05-17T10:52:23.987Z,23.47
2019-05-17T10:54:50.207Z,23.53
2019-05-17T10:57:16.370Z,23.57
2019-05-17T10:59:42.546Z,22.33
2019-05-17T11:02:09.973Z,21.30
2019-05-17T11:04:36.632Z,22.03
2019-05-17T11:07:04.296Z,25.63
2019-05-17T11:09:31.346Z,25.33
2019-05-17T11:11:57.944Z,25.00
2019-05-17T11:14:24.119Z,24.77
2019-05-17T11:16:50.406Z,26.40
2019-05-17T11:19:16.702Z,25.03
2019-05-17T11:21:42.862Z,25.93
2019-05-17T11:24:09.200Z,26.50
2019-05-17T11:26:35.366Z,25.20
2019-05-17T11:29:01.556Z,28.53
2019-05-17T11:31:27.998Z,28.77
2019-05-17T11:33:54.274Z,28.30
2019-05-17T11:36:20.551Z,29.43
2019-05-17T11:38:46.766Z,32.07
2019-05-17T11:41:20.939Z,33.00
2019-05-17T11:43:41.114Z,33.10
2019-05-17T11:46:07.414Z,32.47
2019-05-17T11:48:33.578Z,34.00
2019-05-17T11:50:59.791Z,34.23
2019-05-17T11:53:26.094Z,34.23
2019-05-17T11:55:52.432Z,35.10
2019-05-17T11:58:18.607Z,34.20
2019-05-17T12:00:45.006Z,36.03
2019-05-17T12:03:11.279Z,37.10
2019-05-17T12:05:37.625Z,36.57
2019-05-17T12:08:04.212Z,38.47
2019-05-17T12:10:30.412Z,38.07
2019-05-17T12:12:56.561Z,38.00
2019-05-17T12:15:22.818Z,36.57
2019-05-17T12:17:48.996Z,38.87
2019-05-17T12:20:15.304Z,37.53
2019-05-17T12:22:41.527Z,37.43
2019-05-17T12:25:07.863Z,36.60
2019-05-17T12:27:34.152Z,37.10
2019-05-17T12:30:00.565Z,34.27
2019-05-17T12:32:26.736Z,35.07
2019-05-17T12:34:53.010Z,34.80
2019-05-17T12:37:19.304Z,33.47
2019-05-17T12:39:45.484Z,33.93
2019-05-17T12:42:11.916Z,38.07
2019-05-17T12:44:38.091Z,35.83
2019-05-17T12:47:04.467Z,34.80
2019-05-17T12:49:30.756Z,36.17
2019-05-17T12:51:59.104Z,34.03
2019-05-17T12:54:25.582Z,32.67
2019-05-17T12:56:54.996Z,32.13
2019-05-17T12:59:27.563Z,33.33
2019-05-17T13:01:53.753Z,30.67
2019-05-17T13:04:19.940Z,34.13
2019-05-17T13:06:46.335Z,33.07
2019-05-17T13:09:12.965Z,32.77
2019-05-17T13:11:39.077Z,33.53
2019-05-17T13:14:05.262Z,33.90
2019-05-17T13:16:31.426Z,33.70
2019-05-17T13:18:57.603Z,31.97
2019-05-17T13:21:23.801Z,31.37
2019-05-17T13:23:49.982Z,33.67
2019-05-17T13:26:16.143Z,33.63
2019-05-17T13:28:42.595Z,32.60
2019-05-17T13:31:08.761Z,33.40
2019-05-17T13:33:34.939Z,32.00
2019-05-17T13:36:01.370Z,29.63
2019-05-17T13:38:27.643Z,30.27
2019-05-17T13:40:53.812Z,29.07
2019-05-17T13:43:21.618Z,27.13
2019-05-17T13:45:47.811Z,25.70
2019-05-17T13:48:13.972Z,27.23
2019-05-17T13:50:40.179Z,28.77
2019-05-17T13:53:06.474Z,27.33
2019-05-17T13:55:32.631Z,27.83
2019-05-17T13:57:58.835Z,28.47
2019-05-17T14:00:25.000Z,28.77
2019-05-17T14:02:51.211Z,28.50
2019-05-17T14:05:17.377Z,27.43
2019-05-17T14:07:43.546Z,26.47
2019-05-17T14:10:26.225Z,28.07
2019-05-17T14:12:38.249Z,27.83
2019-05-17T14:15:06.644Z,27.77
2019-05-17T14:17:32.811Z,27.93
2019-05-17T14:19:59.011Z,27.97
2019-05-17T14:22:25.287Z,29.80
2019-05-17T14:24:51.466Z,28.73
2019-05-17T14:27:17.738Z,26.60
2019-05-17T14:29:43.952Z,28.97
2019-05-17T14:32:10.471Z,27.60
2019-05-17T14:34:37.226Z,27.57
2019-05-17T14:37:07.366Z,28.90
2019-05-17T14:39:31.658Z,27.13
2019-05-17T14:41:57.864Z,30.27
2019-05-17T14:44:24.035Z,30.03
2019-05-17T14:46:50.210Z,31.30
2019-05-17T14:49:16.615Z,27.77
2019-05-17T14:51:42.853Z,28.87
2019-05-17T14:54:09.047Z,27.33
2019-05-17T14:56:35.242Z,28.80
2019-05-17T14:59:02.014Z,28.73
2019-05-17T15:01:28.189Z,27.97
2019-05-17T15:03:54.688Z,28.30
2019-05-17T15:06:20.882Z,29.37
2019-05-17T15:08:47.172Z,29.97
2019-05-17T15:11:13.886Z,27.77
2019-05-17T15:13:40.059Z,27.03
2019-05-17T15:16:06.238Z,26.73
2019-05-17T15:18:32.443Z,26.27
2019-05-17T15:20:58.620Z,27.43
2019-05-17T15:23:24.906Z,28.83
2019-05-17T15:25:51.099Z,27.40
2019-05-17T15:28:17.292Z,26.43
2019-05-17T15:30:43.462Z,27.33
2019-05-17T15:33:09.782Z,26.40
2019-05-17T15:35:35.946Z,25.67
2019-05-17T15:38:02.490Z,25.70
2019-05-17T15:40:28.747Z,25.97
2019-05-17T15:42:54.923Z,26.23
2019-05-17T15:45:21.102Z,26.63
2019-05-17T15:47:47.293Z,19.60
2019-05-17T15:50:13.573Z,17.67
2019-05-17T15:52:39.993Z,16.83
2019-05-17T15:55:06.253Z,17.63
2019-05-17T15:57:32.432Z,16.27
2019-05-17T15:59:58.610Z,17.17
2019-05-17T16:02:26.152Z,17.10
2019-05-17T16:04:52.363Z,17.23
2019-05-17T16:07:18.661Z,16.97
2019-05-17T16:09:44.842Z,16.80
2019-05-17T16:12:11.355Z,16.60
2019-05-17T16:14:37.535Z,16.80
2019-05-17T16:17:03.840Z,15.33
2019-05-17T16:19:30.018Z,15.87
2019-05-17T16:21:56.190Z,14.70
2019-05-17T16:24:22.398Z,15.57
2019-05-17T16:26:48.575Z,15.93
2019-05-17T16:29:14.960Z,16.53
2019-05-17T16:31:41.269Z,15.07
2019-05-17T16:34:07.431Z,15.47
2019-05-17T16:36:33.613Z,14.17
2019-05-17T16:38:59.863Z,14.47
2019-05-17T16:41:25.984Z,16.27
2019-05-17T16:43:52.652Z,14.10
2019-05-17T16:46:19.247Z,15.17
2019-05-17T16:48:45.461Z,14.93
2019-05-17T16:51:11.702Z,14.83
2019-05-17T16:53:37.897Z,15.43
2019-05-17T16:56:04.082Z,15.50
2019-05-17T16:58:30.363Z,17.00
2019-05-17T17:00:56.660Z,15.70
2019-05-17T17:03:22.790Z,16.93
2019-05-17T17:05:49.075Z,18.03
2019-05-17T17:08:15.274Z,18.43
2019-05-17T17:10:41.538Z,17.87
2019-05-17T17:13:09.000Z,18.47
2019-05-17T17:15:35.302Z,19.33
2019-05-17T17:18:01.466Z,18.73
2019-05-17T17:20:27.849Z,17.03
2019-05-17T17:22:54.054Z,19.47
2019-05-17T17:25:20.227Z,18.20
2019-05-17T17:27:46.404Z,19.23
2019-05-17T17:30:13.514Z,19.37
2019-05-17T17:32:39.690Z,19.23
2019-05-17T17:35:06.163Z,20.53
2019-05-17T17:37:32.363Z,21.50
2019-05-17T17:39:58.843Z,20.00
2019-05-17T17:42:25.018Z,20.77
2019-05-17T17:44:51.362Z,20.57
2019-05-17T17:47:17.491Z,19.97
2019-05-17T17:49:43.771Z,20.43
2019-05-17T17:52:09.967Z,19.77
2019-05-17T17:54:36.150Z,21.43
2019-05-17T17:57:02.332Z,19.70
2019-05-17T17:59:28.737Z,19.67
2019-05-17T18:01:54.915Z,21.20
2019-05-17T18:04:21.088Z,19.00
2019-05-17T18:06:47.289Z,19.87
2019-05-17T18:09:13.466Z,22.10
2019-05-17T18:11:39.643Z,18.93
2019-05-17T18:14:13.520Z,19.17
2019-05-17T18:16:34.890Z,19.77
2019-05-17T18:19:01.014Z,19.27
2019-05-17T18:21:27.275Z,18.43
2019-05-17T18:23:53.442Z,19.17
2019-05-17T18:26:19.618Z,19.40
2019-05-17T18:28:45.914Z,20.07
2019-05-17T18:31:12.097Z,18.27
2019-05-17T18:33:38.270Z,18.23
2019-05-17T18:36:04.470Z,17.40
2019-05-17T18:38:31.163Z,16.27
2019-05-17T18:40:57.342Z,17.13
2019-05-17T18:43:23.546Z,17.40
2019-05-17T18:45:49.722Z,16.50
2019-05-17T18:48:15.895Z,16.03
2019-05-17T18:50:42.095Z,17.13
2019-05-17T18:53:15.988Z,17.70
2019-05-17T18:55:36.318Z,17.60
2019-05-17T18:58:02.616Z,16.87
2019-05-17T19:00:28.782Z,16.77
2019-05-17T19:02:54.962Z,17.60
2019-05-17T19:05:21.391Z,16.37
2019-05-17T19:07:47.566Z,16.40
2019-05-17T19:10:14.043Z,16.07
2019-05-17T19:12:40.258Z,16.83
2019-05-17T19:15:06.938Z,16.27
2019-05-17T19:17:33.112Z,16.53
2019-05-17T19:19:59.933Z,15.13
2019-05-17T19:22:26.318Z,16.53
2019-05-17T19:24:52.592Z,15.57
2019-05-17T19:27:18.978Z,16.07
2019-05-17T19:29:45.152Z,16.20
2019-05-17T19:32:11.328Z,15.47
2019-05-17T19:34:37.534Z,16.47
2019-05-17T19:37:03.785Z,16.57
2019-05-17T19:39:29.990Z,15.47
2019-05-17T19:41:56.297Z,16.30
2019-05-17T19:44:22.571Z,16.57
2019-05-17T19:46:48.741Z,15.80
2019-05-17T19:49:15.134Z,16.70
2019-05-17T19:51:41.429Z,15.83
2019-05-17T19:54:07.607Z,15.40
2019-05-17T19:56:33.916Z,16.07
2019-05-17T19:59:00.083Z,15.97
2019-05-17T20:01:26.262Z,15.77
2019-05-17T20:03:52.682Z,15.40
2019-05-17T20:06:19.555Z,16.37
2019-05-17T20:08:45.773Z,18.70
2019-05-17T20:11:12.007Z,18.40
2019-05-17T20:13:38.306Z,16.70
2019-05-17T20:16:04.970Z,17.13
2019-05-17T20:18:31.312Z,17.83
2019-05-17T20:20:57.546Z,18.33
2019-05-17T20:23:23.733Z,19.30
2019-05-17T20:25:50.124Z,18.90
2019-05-17T20:28:16.302Z,17.73
2019-05-17T20:30:42.478Z,19.53
2019-05-17T20:33:08.676Z,18.70
2019-05-17T20:35:34.887Z,19.87
2019-05-17T20:38:01.139Z,19.10
2019-05-17T20:40:27.327Z,18.73
2019-05-17T20:42:53.507Z,19.30
2019-05-17T20:45:32.032Z,20.50
2019-05-17T20:47:47.691Z,20.20
2019-05-17T20:50:14.394Z,21.53
2019-05-17T20:52:40.680Z,21.27
2019-05-17T20:55:07.178Z,21.13
2019-05-17T20:57:33.505Z,21.73
2019-05-17T20:59:59.638Z,20.97
2019-05-17T21:02:25.939Z,21.80
2019-05-17T21:04:52.188Z,23.80
2019-05-17T21:07:18.389Z,22.60
2019-05-17T21:09:44.690Z,24.07
2019-05-17T21:12:10.874Z,23.90
2019-05-17T21:14:37.059Z,24.47
2019-05-17T21:17:04.972Z,24.73
2019-05-17T21:19:31.194Z,24.77
2019-05-17T21:21:57.319Z,25.90
2019-05-17T21:24:23.855Z,26.77
2019-05-17T21:26:50.119Z,26.53
2019-05-17T21:29:16.299Z,27.63
2019-05-17T21:31:42.502Z,28.50
2019-05-17T21:34:08.699Z,28.07
2019-05-17T21:36:34.866Z,28.13
2019-05-17T21:39:01.065Z,29.50
2019-05-17T21:41:27.405Z,30.47
2019-05-17T21:43:53.618Z,27.93
2019-05-17T21:46:20.018Z,27.90
2019-05-17T21:48:46.193Z,29.03
2019-05-17T21:51:12.475Z,30.60
2019-05-17T21:53:38.686Z,28.63
2019-05-17T21:56:04.863Z,30.07
2019-05-17T21:58:31.030Z,30.67
2019-05-17T22:00:59.154Z,30.37
2019-05-17T22:03:25.324Z,31.50
2019-05-17T22:05:51.696Z,31.50
2019-05-17T22:08:18.086Z,32.00
2019-05-17T22:10:44.459Z,31.73
2019-05-17T22:13:10.622Z,31.50
2019-05-17T22:15:36.827Z,32.53
2019-05-17T22:18:03.533Z,32.67
2019-05-17T22:20:29.734Z,34.07
2019-05-17T22:22:56.234Z,34.33
2019-05-17T22:25:22.410Z,33.40
2019-05-17T22:27:48.591Z,32.60
2019-05-17T22:30:14.798Z,32.87
2019-05-17T22:32:40.972Z,31.87
2019-05-17T22:35:07.454Z,34.13
2019-05-17T22:37:33.682Z,34.03
2019-05-17T22:39:59.861Z,36.77
2019-05-17T22:42:26.040Z,36.57
2019-05-17T22:44:52.278Z,38.93
2019-05-17T22:47:18.677Z,38.40
2019-05-17T22:49:44.863Z,42.10
2019-05-17T22:52:11.054Z,39.63
2019-05-17T22:54:37.334Z,39.87
2019-05-17T22:57:03.519Z,41.03
2019-05-17T22:59:29.717Z,39.37
2019-05-17T23:01:57.337Z,42.63
2019-05-17T23:04:23.469Z,43.30
2019-05-17T23:06:50.036Z,51.50
2019-05-17T23:09:16.223Z,43.07
2019-05-17T23:11:42.407Z,41.57
2019-05-17T23:14:08.606Z,41.27
2019-05-17T23:16:34.786Z,42.27
2019-05-17T23:19:04.230Z,43.03
2019-05-17T23:21:30.531Z,42.83
2019-05-17T23:23:56.745Z,39.57
2019-05-17T23:26:22.887Z,41.27
2019-05-17T23:28:49.090Z,44.33
2019-05-17T23:31:15.363Z,42.03
2019-05-17T23:33:41.550Z,48.13
2019-05-17T23:36:07.756Z,44.07
2019-05-17T23:38:34.135Z,44.70
2019-05-17T23:41:00.311Z,44.80
2019-05-17T23:43:27.042Z,41.60
2019-05-17T23:45:53.224Z,41.27
2019-05-17T23:48:19.518Z,45.70
2019-05-17T23:50:45.708Z,44.77
2019-05-17T23:53:11.883Z,52.93
2019-05-17T23:55:38.162Z,50.47
2019-05-17T23:58:04.655Z,52.93
